Time;durP1;ratioP1;P1;durP2;ratioP2;P2;SDS_P1;SDS_P2;PMS_P1;PMS_P2;Temp;Humidity;BMP_temperature;BMP_pressure;BME280_temperature;BME280_humidity;BME280_pressure;Samples;Min_cycle;Max_cycle;Signal;HPM_P1;HPM_P2
2021/12/04 00:02:07;;;;;;;;;;;1.50;99.90;;;;;;4831016;29;19916;-89
2021/12/04 00:04:35;;;;;;;;;;;1.50;99.90;;;;;;4832200;29;20428;-87
2021/12/04 00:07:02;;;;;;;;;;;1.50;99.90;;;;;;4844228;29;19927;-88
2021/12/04 00:09:29;;;;;;;;;;;1.50;99.90;;;;;;4830891;29;19981;-88
2021/12/04 00:11:57;;;;;;;;;;;1.50;99.90;;;;;;4830544;29;19912;-89
2021/12/04 00:14:23;;;;;;;;;;;1.50;99.90;;;;;;4830506;29;19917;-88
2021/12/04 00:16:49;;;;;;;;;;;1.50;99.90;;;;;;4830530;29;19912;-88
2021/12/04 00:19:17;;;;;;;;;;;1.50;99.90;;;;;;4846593;29;19938;-87
2021/12/04 00:21:43;;;;;;;;;;;1.50;99.90;;;;;;4858043;29;19935;-88
2021/12/04 00:24:09;;;;;;;;;;;1.50;99.90;;;;;;4832024;29;19920;-88
2021/12/04 00:26:34;;;;;;;;;;;1.50;99.90;;;;;;4844259;29;19919;-89
2021/12/04 00:29:00;;;;;;;;;;;1.50;99.90;;;;;;4848356;29;19963;-88
2021/12/04 00:31:26;;;;;;;;;;;1.50;99.90;;;;;;4859792;29;19912;-88
2021/12/04 00:33:52;;;;;;;;;;;1.50;99.90;;;;;;4845966;29;19915;-88
2021/12/04 00:49:49;;;;;;;;;;;1.60;99.90;;;;;;4866806;29;19923;-88
2021/12/04 00:52:14;;;;;;;;;;;1.60;99.90;;;;;;4865953;29;19920;-88
2021/12/04 00:54:40;;;;;;;;;;;1.50;99.90;;;;;;4857512;29;19916;-88
2021/12/04 00:57:05;;;;;;;;;;;1.60;99.90;;;;;;4845760;29;19915;-87
2021/12/04 00:59:31;;;;;;;;;;;1.60;99.90;;;;;;4852075;29;20011;-88
2021/12/04 01:01:57;;;;;;;;;;;1.60;99.90;;;;;;4858568;29;20775;-88
2021/12/04 01:04:22;;;;;;;;;;;1.60;99.90;;;;;;4852253;29;19916;-87
2021/12/04 01:06:48;;;;;;;;;;;1.60;99.90;;;;;;4868534;29;20327;-88
2021/12/04 01:09:18;;;;;;;;;;;1.60;99.90;;;;;;4851962;29;19916;-87
2021/12/04 01:11:44;;;;;;;;;;;1.60;99.90;;;;;;4852294;29;19955;-87
2021/12/04 01:14:10;;;;;;;;;;;1.60;99.90;;;;;;4866206;29;20388;-88
2021/12/04 01:16:36;;;;;;;;;;;1.70;99.90;;;;;;4849465;29;20326;-88
2021/12/04 01:19:01;;;;;;;;;;;1.70;99.90;;;;;;4850433;29;19960;-88
2021/12/04 01:21:27;;;;;;;;;;;1.60;99.90;;;;;;4850123;29;20278;-87
2021/12/04 01:23:54;;;;;;;;;;;1.60;99.90;;;;;;4867310;29;19924;-88
2021/12/04 01:26:20;;;;;;;;;;;1.70;99.90;;;;;;4851721;29;20368;-88
2021/12/04 01:28:45;;;;;;;;;;;1.70;99.90;;;;;;4850316;29;19971;-87
2021/12/04 01:31:11;;;;;;;;;;;1.70;99.90;;;;;;4850215;29;19912;-88
2021/12/04 01:33:36;;;;;;;;;;;1.70;99.90;;;;;;4851400;29;20441;-87
2021/12/04 01:36:02;;;;;;;;;;;1.70;99.90;;;;;;4849934;29;19942;-86
2021/12/04 01:38:27;;;;;;;;;;;1.70;99.90;;;;;;4866531;29;19923;-88
2021/12/04 01:40:53;;;;;;;;;;;1.70;99.90;;;;;;4851406;29;19998;-86
2021/12/04 01:43:19;;;;;;;;;;;1.70;99.90;;;;;;4853362;29;19923;-87
2021/12/04 01:45:44;;;;;;;;;;;1.70;99.90;;;;;;4849711;29;19919;-88
2021/12/04 01:48:10;;;;;;;;;;;1.60;99.90;;;;;;4867076;29;19912;-88
2021/12/04 01:50:36;;;;;;;;;;;1.60;99.90;;;;;;4866252;29;19919;-89
2021/12/04 01:53:02;;;;;;;;;;;1.60;99.90;;;;;;4867477;29;19923;-87
2021/12/04 01:55:29;;;;;;;;;;;1.70;99.90;;;;;;4851249;29;19919;-87
2021/12/04 01:57:54;;;;;;;;;;;1.60;99.90;;;;;;4866786;29;20290;-87
2021/12/04 02:00:20;;;;;;;;;;;1.70;99.90;;;;;;4866335;29;19940;-86
2021/12/04 02:02:46;;;;;;;;;;;1.70;99.90;;;;;;4854532;29;19923;-88
2021/12/04 02:05:11;;;;;;;;;;;1.70;99.90;;;;;;4853297;29;20311;-88
2021/12/04 02:07:37;;;;;;;;;;;1.70;99.90;;;;;;4853732;29;20352;-88
2021/12/04 02:10:07;;;;;;;;;;;1.70;99.90;;;;;;4869167;29;19923;-88
2021/12/04 02:12:32;;;;;;;;;;;1.70;99.90;;;;;;4853838;29;19972;-88
2021/12/04 02:14:58;;;;;;;;;;;1.70;99.90;;;;;;4855232;29;19915;-89
2021/12/04 02:17:23;;;;;;;;;;;1.70;99.90;;;;;;4869433;29;20345;-88
2021/12/04 02:19:49;;;;;;;;;;;1.70;99.90;;;;;;4856037;29;19958;-88
2021/12/04 02:22:15;;;;;;;;;;;1.70;99.90;;;;;;4868649;29;20078;-88
2021/12/04 02:24:40;;;;;;;;;;;1.70;99.90;;;;;;4853305;29;19916;-88
2021/12/04 02:27:06;;;;;;;;;;;1.70;99.90;;;;;;4869729;29;19926;-88
2021/12/04 02:29:32;;;;;;;;;;;1.70;99.90;;;;;;4868347;29;20269;-88
2021/12/04 02:31:58;;;;;;;;;;;1.60;99.90;;;;;;4855859;29;20555;-88
2021/12/04 02:34:28;;;;;;;;;;;1.70;99.90;;;;;;4854908;29;19967;-88
2021/12/04 02:36:57;;;;;;;;;;;1.70;99.90;;;;;;4844360;29;19922;-89
2021/12/04 02:39:25;;;;;;;;;;;1.60;99.90;;;;;;4854459;29;19940;-88
2021/12/04 02:41:53;;;;;;;;;;;1.70;99.90;;;;;;4852467;29;19916;-88
2021/12/04 02:44:23;;;;;;;;;;;1.70;99.90;;;;;;4845102;29;19946;-88
2021/12/04 02:46:49;;;;;;;;;;;1.60;99.90;;;;;;4855524;29;20392;-87
2021/12/04 02:49:15;;;;;;;;;;;1.60;99.90;;;;;;4854574;29;19964;-89
2021/12/04 02:51:41;;;;;;;;;;;1.70;99.90;;;;;;4870063;29;20019;-87
2021/12/04 02:54:10;;;;;;;;;;;1.60;99.90;;;;;;4854520;29;19916;-88
2021/12/04 02:56:35;;;;;;;;;;;1.70;99.90;;;;;;4869114;29;19916;-88
2021/12/04 02:59:04;;;;;;;;;;;1.70;99.90;;;;;;4856551;29;19923;-88
2021/12/04 03:01:30;;;;;;;;;;;1.70;99.90;;;;;;4856312;29;20689;-88
2021/12/04 03:04:05;;;;;;;;;;;1.70;99.90;;;;;;4871899;29;19922;-87
2021/12/04 03:06:31;;;;;;;;;;;1.70;99.90;;;;;;4868960;29;19920;-88
2021/12/04 03:08:56;;;;;;;;;;;1.70;99.90;;;;;;4856739;29;20360;-88
2021/12/04 03:11:22;;;;;;;;;;;1.70;99.90;;;;;;4853898;29;19923;-87
2021/12/04 03:13:47;;;;;;;;;;;1.70;99.90;;;;;;4871728;29;19991;-88
2021/12/04 03:16:13;;;;;;;;;;;1.70;99.90;;;;;;4870851;29;19999;-87
2021/12/04 03:18:38;;;;;;;;;;;1.70;99.90;;;;;;4870506;29;20558;-88
2021/12/04 03:21:05;;;;;;;;;;;1.70;99.90;;;;;;4853575;29;19926;-87
2021/12/04 03:23:39;;;;;;;;;;;1.70;99.90;;;;;;4870491;29;20341;-88
2021/12/04 03:26:09;;;;;;;;;;;1.80;99.90;;;;;;4868303;29;19967;-87
2021/12/04 03:28:35;;;;;;;;;;;1.70;99.90;;;;;;4854044;29;20637;-88
2021/12/04 03:31:08;;;;;;;;;;;1.80;99.90;;;;;;4853677;29;19920;-88
2021/12/04 03:35:18;;;;;;;;;;;1.80;99.90;;;;;;4859260;29;19951;-88
2021/12/04 03:42:06;;;;;;;;;;;1.80;99.90;;;;;;4868599;29;20367;-88
2021/12/04 03:44:32;;;;;;;;;;;1.80;99.90;;;;;;4868931;29;20416;-88
2021/12/04 03:46:58;;;;;;;;;;;1.80;99.90;;;;;;4854103;29;19940;-88
2021/12/04 03:49:23;;;;;;;;;;;1.80;99.90;;;;;;4852189;29;20535;-88
2021/12/04 03:51:49;;;;;;;;;;;1.90;99.90;;;;;;4850491;29;19923;-88
2021/12/04 03:54:14;;;;;;;;;;;1.90;99.90;;;;;;4867724;29;19927;-87
2021/12/04 03:56:40;;;;;;;;;;;1.90;99.90;;;;;;4867944;29;19919;-88
2021/12/04 03:59:05;;;;;;;;;;;1.90;99.90;;;;;;4854575;29;19947;-88
2021/12/04 04:01:31;;;;;;;;;;;1.90;99.90;;;;;;4867901;29;20271;-87
2021/12/04 04:03:56;;;;;;;;;;;1.90;99.90;;;;;;4860232;29;19920;-87
2021/12/04 04:06:22;;;;;;;;;;;1.90;99.90;;;;;;4864231;29;19931;-87
2021/12/04 04:08:48;;;;;;;;;;;1.80;99.90;;;;;;4857216;29;19915;-88
2021/12/04 04:11:13;;;;;;;;;;;1.90;99.90;;;;;;4866857;29;20961;-88
2021/12/04 04:13:43;;;;;;;;;;;1.80;99.90;;;;;;4843122;29;19916;-87
2021/12/04 04:16:08;;;;;;;;;;;1.90;99.90;;;;;;4865933;29;20477;-87
2021/12/04 04:18:34;;;;;;;;;;;1.90;99.90;;;;;;4851047;29;20022;-87
2021/12/04 04:20:59;;;;;;;;;;;1.90;99.90;;;;;;4851255;29;20300;-89
2021/12/04 04:23:25;;;;;;;;;;;1.90;99.90;;;;;;4855813;29;19927;-89
2021/12/04 04:25:51;;;;;;;;;;;1.90;99.90;;;;;;4851602;29;19919;-87
2021/12/04 04:28:16;;;;;;;;;;;1.90;99.90;;;;;;4868177;29;19912;-87
2021/12/04 04:30:42;;;;;;;;;;;1.90;99.90;;;;;;4852121;29;20368;-89
2021/12/04 04:33:10;;;;;;;;;;;1.80;99.90;;;;;;4859124;29;20320;-88
2021/12/04 04:35:36;;;;;;;;;;;1.80;99.90;;;;;;4866990;29;19916;-88
2021/12/04 05:13:09;;;;;;;;;;;1.70;99.90;;;;;;4867763;29;19947;-90
2021/12/04 05:20:38;;;;;;;;;;;1.70;99.90;;;;;;4867400;29;19920;-92
2021/12/04 05:23:03;;;;;;;;;;;1.70;99.90;;;;;;4852242;29;20415;-92
2021/12/04 05:25:30;;;;;;;;;;;1.60;99.90;;;;;;4853460;29;19955;-92
2021/12/04 05:27:56;;;;;;;;;;;1.70;99.90;;;;;;4868428;29;19916;-93
2021/12/04 05:30:22;;;;;;;;;;;1.70;99.90;;;;;;4855136;29;19944;-95
2021/12/04 05:32:47;;;;;;;;;;;1.60;99.90;;;;;;4858092;29;19916;-90
2021/12/04 05:35:16;;;;;;;;;;;1.60;99.90;;;;;;4869652;29;19951;-91
2021/12/04 05:37:41;;;;;;;;;;;1.60;99.90;;;;;;4855648;29;19973;-89
2021/12/04 05:40:10;;;;;;;;;;;1.60;99.90;;;;;;4871887;29;19916;-92
2021/12/04 05:42:36;;;;;;;;;;;1.60;99.90;;;;;;4855388;29;19987;-91
2021/12/04 05:45:02;;;;;;;;;;;1.60;99.90;;;;;;4860598;29;19919;-90
2021/12/04 05:47:35;;;;;;;;;;;1.60;99.90;;;;;;4856489;29;19915;-91
2021/12/04 05:50:38;;;;;;;;;;;1.50;99.90;;;;;;4857644;29;19915;-91
2021/12/04 05:55:22;;;;;;;;;;;1.50;99.90;;;;;;4862238;29;19918;-90
2021/12/04 05:57:47;;;;;;;;;;;1.50;99.90;;;;;;4856446;29;20411;-91
2021/12/04 06:00:18;;;;;;;;;;;1.50;99.90;;;;;;4870873;29;19916;-91
2021/12/04 06:02:43;;;;;;;;;;;1.50;99.90;;;;;;4858572;29;20271;-90
2021/12/04 06:05:09;;;;;;;;;;;1.50;99.90;;;;;;4869814;29;19920;-89
2021/12/04 06:07:35;;;;;;;;;;;1.50;99.90;;;;;;4848037;29;20176;-90
2021/12/04 06:10:00;;;;;;;;;;;1.50;99.90;;;;;;4860383;29;19940;-91
2021/12/04 06:12:26;;;;;;;;;;;1.50;99.90;;;;;;4858773;29;20376;-92
2021/12/04 06:14:51;;;;;;;;;;;1.50;99.90;;;;;;4857335;29;19923;-91
2021/12/04 06:17:20;;;;;;;;;;;1.50;99.90;;;;;;4872584;29;19912;-91
2021/12/04 06:22:42;;;;;;;;;;;1.50;99.90;;;;;;4862746;29;20639;-90
2021/12/04 06:25:10;;;;;;;;;;;1.50;99.90;;;;;;4858554;29;20450;-91
2021/12/04 06:27:35;;;;;;;;;;;1.50;99.90;;;;;;4858660;29;19912;-90
2021/12/04 06:30:02;;;;;;;;;;;1.50;99.90;;;;;;4858081;29;19922;-90
2021/12/04 06:32:28;;;;;;;;;;;1.50;99.90;;;;;;4854877;29;19911;-91
2021/12/04 06:34:53;;;;;;;;;;;1.50;99.90;;;;;;4855821;29;20003;-91
2021/12/04 06:37:19;;;;;;;;;;;1.50;99.90;;;;;;4858793;29;20261;-91
2021/12/04 06:39:44;;;;;;;;;;;1.60;99.90;;;;;;4858643;29;20234;-90
2021/12/04 06:42:10;;;;;;;;;;;1.50;99.90;;;;;;4853479;29;20007;-91
2021/12/04 06:44:36;;;;;;;;;;;1.50;99.90;;;;;;4854867;29;19924;-91
2021/12/04 06:47:02;;;;;;;;;;;1.50;99.90;;;;;;4868112;29;19911;-90
2021/12/04 06:49:32;;;;;;;;;;;1.60;99.90;;;;;;4854181;29;19916;-91
2021/12/04 06:52:01;;;;;;;;;;;1.60;99.90;;;;;;4869902;29;20419;-90
2021/12/04 06:54:32;;;;;;;;;;;1.70;99.90;;;;;;4869881;29;19955;-91
2021/12/04 06:56:58;;;;;;;;;;;1.60;99.90;;;;;;4852737;29;20020;-89
2021/12/04 06:59:29;;;;;;;;;;;1.60;99.90;;;;;;4869297;29;19912;-89
2021/12/04 07:01:55;;;;;;;;;;;1.60;99.90;;;;;;4869507;29;20580;-90
2021/12/04 07:04:21;;;;;;;;;;;1.60;99.90;;;;;;4854208;29;19919;-90
2021/12/04 07:06:49;;;;;;;;;;;1.60;99.90;;;;;;4832019;29;19912;-89
2021/12/04 07:09:17;;;;;;;;;;;1.60;99.90;;;;;;4824561;29;20087;-89
2021/12/04 07:11:48;;;;;;;;;;;1.60;99.90;;;;;;4829157;29;19919;-89
2021/12/04 07:14:14;;;;;;;;;;;1.60;99.90;;;;;;4853252;29;20573;-89
2021/12/04 07:16:43;;;;;;;;;;;1.60;99.90;;;;;;4854854;29;19916;-89
2021/12/04 07:19:32;;;;;;;;;;;1.60;99.90;;;;;;4857323;29;20031;-91
2021/12/04 07:21:58;;;;;;;;;;;1.60;99.90;;;;;;4831553;29;19923;-89
2021/12/04 07:24:34;;;;;;;;;;;1.70;99.90;;;;;;4830394;29;19931;-90
2021/12/04 07:27:02;;;;;;;;;;;1.70;99.90;;;;;;4781145;29;19936;-89
2021/12/04 07:30:06;;;;;;;;;;;1.70;99.90;;;;;;4809250;29;19955;-90
2021/12/04 07:32:59;;;;;;;;;;;1.60;99.90;;;;;;4782318;29;19917;-90
2021/12/04 07:36:24;;;;;;;;;;;1.70;99.90;;;;;;4785908;29;20254;-91
2021/12/04 07:38:26;;;;;;;;;;;1.70;99.90;;;;;;4785727;29;19916;-91
2021/12/04 07:41:25;;;;;;;;;;;1.70;99.90;;;;;;4809672;29;20492;-90
2021/12/04 07:44:29;;;;;;;;;;;;;;;;;;;;;
2021/12/04 07:53:11;;;;;;;;;;;1.80;99.90;;;;;;4795809;29;19922;-89
2021/12/04 07:55:36;;;;;;;;;;;1.80;99.90;;;;;;4782755;29;20301;-89
2021/12/04 07:58:02;;;;;;;;;;;1.80;99.90;;;;;;4811064;29;19913;-89
2021/12/04 08:00:31;;;;;;;;;;;1.80;99.90;;;;;;4794580;29;19916;-90
2021/12/04 08:03:01;;;;;;;;;;;1.80;99.90;;;;;;4795347;29;20003;-89
2021/12/04 08:05:46;;;;;;;;;;;;;;;;;;;;;
2021/12/04 08:11:07;;;;;;;;;;;1.80;99.90;;;;;;4780015;29;20464;-90
2021/12/04 08:13:49;;;;;;;;;;;1.90;99.90;;;;;;4792853;29;19927;-89
2021/12/04 08:16:25;;;;;;;;;;;1.90;99.90;;;;;;4794923;29;20011;-90
2021/12/04 08:19:09;;;;;;;;;;;;;;;;;;;;;
2021/12/04 08:21:36;;;;;;;;;;;1.80;99.90;;;;;;4832580;29;20701;-90
2021/12/04 08:24:11;;;;;;;;;;;1.90;99.90;;;;;;4830145;29;19926;-90
2021/12/04 08:26:47;;;;;;;;;;;1.90;99.90;;;;;;4788692;29;19946;-90
2021/12/04 08:29:13;;;;;;;;;;;1.90;99.90;;;;;;4835914;29;19915;-91
2021/12/04 08:31:39;;;;;;;;;;;1.90;99.90;;;;;;4856380;29;20023;-91
2021/12/04 08:34:07;;;;;;;;;;;2.00;99.90;;;;;;4848925;29;20761;-90
2021/12/04 08:36:33;;;;;;;;;;;1.90;99.90;;;;;;4839435;29;19923;-91
2021/12/04 08:39:02;;;;;;;;;;;2.00;99.90;;;;;;4848379;29;20383;-91
2021/12/04 08:41:28;;;;;;;;;;;2.00;99.90;;;;;;4828193;29;19912;-91
2021/12/04 08:43:56;;;;;;;;;;;2.30;99.90;;;;;;4837308;29;20725;-90
2021/12/04 08:46:23;;;;;;;;;;;2.50;99.90;;;;;;4827824;29;19917;-90
2021/12/04 08:48:57;;;;;;;;;;;2.40;99.90;;;;;;4835229;29;19916;-90
2021/12/04 08:51:24;;;;;;;;;;;2.30;99.90;;;;;;4829272;29;19923;-90
2021/12/04 08:57:21;;;;;;;;;;;2.20;99.90;;;;;;4873167;29;20318;-90
2021/12/04 08:59:47;;;;;;;;;;;2.20;99.90;;;;;;4848453;29;19911;-90
2021/12/04 09:02:17;;;;;;;;;;;2.20;99.90;;;;;;4831688;29;20222;-90
2021/12/04 09:04:44;;;;;;;;;;;2.10;99.90;;;;;;4867665;29;19923;-89
2021/12/04 09:07:10;;;;;;;;;;;2.10;99.90;;;;;;4864285;29;19920;-90
2021/12/04 09:09:36;;;;;;;;;;;2.10;99.90;;;;;;4850144;29;20287;-89
2021/12/04 09:12:30;;;;;;;;;;;2.10;99.90;;;;;;4824779;29;19943;-87
2021/12/04 09:18:46;;;;;;;;;;;2.10;99.90;;;;;;4718237;30;19928;-90
2021/12/04 09:21:41;;;;;;;;;;;2.10;99.90;;;;;;4661035;30;20411;-88
2021/12/04 09:24:36;;;;;;;;;;;2.10;99.90;;;;;;4805332;29;20349;-89
2021/12/04 09:33:39;;;;;;;;;;;;;;;;;;;;;
2021/12/04 10:38:23;;;;;;;;;;;2.20;99.90;;;;;;4713161;30;20306;-89
2021/12/04 10:41:00;;;;;;;;;;;2.20;99.90;;;;;;4718866;30;20394;-90
2021/12/04 10:53:05;;;;;;;;;;;2.20;99.90;;;;;;4766407;29;19917;-91
2021/12/04 11:44:32;;;;;;;;;;;2.50;99.90;;;;;;4855226;29;20010;-88
2021/12/04 11:47:00;;;;;;;;;;;2.60;99.90;;;;;;4881812;29;19926;-88
2021/12/04 11:49:30;;;;;;;;;;;2.50;99.90;;;;;;4877699;29;20010;-87
2021/12/04 11:52:18;;;;;;;;;;;2.50;99.90;;;;;;4883066;29;20395;-89
2021/12/04 11:54:47;;;;;;;;;;;2.70;99.90;;;;;;4869988;29;19915;-91
2021/12/04 11:57:13;;;;;;;;;;;2.60;99.90;;;;;;4856795;29;20371;-88
2021/12/04 11:59:40;;;;;;;;;;;2.60;99.90;;;;;;4854871;29;19915;-89
2021/12/04 12:21:01;;;;;;;;;;;2.60;99.90;;;;;;4820642;29;19923;-91
2021/12/04 12:23:31;;;;;;;;;;;2.60;99.90;;;;;;4852934;29;19922;-89
2021/12/04 12:38:46;;;;;;;;;;;2.70;99.90;;;;;;4837618;29;19963;-90
2021/12/04 12:41:50;;;;;;;;;;;2.80;99.90;;;;;;4823645;29;19928;-90
2021/12/04 12:44:18;;;;;;;;;;;2.90;99.90;;;;;;4758696;29;19929;-92
2021/12/04 12:46:52;;;;;;;;;;;2.90;99.90;;;;;;4830621;29;20316;-89
2021/12/04 12:49:18;;;;;;;;;;;2.90;99.90;;;;;;4833899;29;20406;-89
2021/12/04 12:51:44;;;;;;;;;;;3.00;99.90;;;;;;4838843;29;19916;-88
2021/12/04 12:54:10;;;;;;;;;;;3.00;99.90;;;;;;4834552;29;19919;-87
2021/12/04 12:56:37;;;;;;;;;;;3.00;99.90;;;;;;4835900;29;20003;-88
2021/12/04 12:59:22;;;;;;;;;;;3.00;99.90;;;;;;4845211;29;19916;-88
2021/12/04 13:13:32;;;;;;;;;;;2.90;99.90;;;;;;4845587;29;20403;-88
2021/12/04 13:16:05;;;;;;;;;;;2.90;99.90;;;;;;4844615;29;19919;-88
2021/12/04 13:18:32;;;;;;;;;;;2.90;99.90;;;;;;4847313;29;19951;-88
2021/12/04 13:20:59;;;;;;;;;;;2.80;99.90;;;;;;4833067;29;19941;-88
2021/12/04 13:23:26;;;;;;;;;;;2.80;99.90;;;;;;4846376;29;20061;-87
2021/12/04 13:25:54;;;;;;;;;;;2.80;99.90;;;;;;4828457;29;19945;-88
2021/12/04 13:28:21;;;;;;;;;;;2.80;99.90;;;;;;4862072;29;19920;-87
2021/12/04 13:30:46;;;;;;;;;;;2.80;99.90;;;;;;4831531;29;19920;-88
2021/12/04 13:33:14;;;;;;;;;;;2.70;99.90;;;;;;4850189;29;19950;-88
2021/12/04 13:35:45;;;;;;;;;;;2.80;99.90;;;;;;4844082;29;20008;-87
2021/12/04 13:38:15;;;;;;;;;;;2.80;99.90;;;;;;4827208;29;19920;-88
2021/12/04 13:40:40;;;;;;;;;;;2.70;99.90;;;;;;4846791;29;20341;-89
2021/12/04 13:43:13;;;;;;;;;;;2.70;99.90;;;;;;4840024;29;19988;-88
2021/12/04 13:45:41;;;;;;;;;;;2.80;99.90;;;;;;4847099;29;19920;-88
2021/12/04 13:48:08;;;;;;;;;;;2.80;99.90;;;;;;4845579;29;19970;-88
2021/12/04 13:53:02;;;;;;;;;;;2.80;99.90;;;;;;4848967;29;19912;-88
2021/12/04 13:55:28;;;;;;;;;;;2.80;99.90;;;;;;4845630;29;19928;-88
2021/12/04 13:57:56;;;;;;;;;;;2.70;99.90;;;;;;4849015;29;19916;-88
2021/12/04 14:00:24;;;;;;;;;;;2.70;99.90;;;;;;4848295;29;20383;-88
2021/12/04 14:02:50;;;;;;;;;;;2.70;99.90;;;;;;4859576;29;19962;-88
2021/12/04 14:05:17;;;;;;;;;;;2.80;99.90;;;;;;4834678;29;19976;-88
2021/12/04 14:07:52;;;;;;;;;;;2.80;99.90;;;;;;4854735;29;20285;-88
2021/12/04 14:10:19;;;;;;;;;;;2.70;99.90;;;;;;4829934;29;20011;-88
2021/12/04 14:12:45;;;;;;;;;;;2.70;99.90;;;;;;4833146;29;20624;-88
2021/12/04 14:15:12;;;;;;;;;;;2.80;99.90;;;;;;4847466;29;19951;-88
2021/12/04 14:17:37;;;;;;;;;;;2.80;99.90;;;;;;4846093;29;20027;-88
2021/12/04 14:20:04;;;;;;;;;;;2.80;99.90;;;;;;4847106;29;20392;-89
2021/12/04 14:22:29;;;;;;;;;;;2.80;99.90;;;;;;4847713;29;20364;-88
2021/12/04 14:24:58;;;;;;;;;;;2.80;99.90;;;;;;4845485;29;19921;-88
2021/12/04 14:27:25;;;;;;;;;;;2.80;99.90;;;;;;4831994;29;19912;-88
2021/12/04 14:29:55;;;;;;;;;;;2.80;99.90;;;;;;4853043;29;19924;-88
2021/12/04 14:32:22;;;;;;;;;;;2.70;99.90;;;;;;4871746;29;20371;-88
2021/12/04 14:34:53;;;;;;;;;;;2.80;99.90;;;;;;4866286;29;20272;-89
2021/12/04 14:37:18;;;;;;;;;;;2.70;99.90;;;;;;4869454;29;19943;-88
2021/12/04 14:39:50;;;;;;;;;;;2.70;99.90;;;;;;4863604;29;19998;-88
2021/12/04 14:42:22;;;;;;;;;;;2.60;99.90;;;;;;4883519;29;19919;-89
2021/12/04 14:44:49;;;;;;;;;;;2.60;99.90;;;;;;4868039;29;19983;-88
2021/12/04 14:47:16;;;;;;;;;;;2.60;99.90;;;;;;4866750;29;19913;-88
2021/12/04 14:49:45;;;;;;;;;;;2.60;99.90;;;;;;4890310;29;20446;-88
2021/12/04 14:52:23;;;;;;;;;;;2.60;99.90;;;;;;4868644;29;19923;-88
2021/12/04 14:54:50;;;;;;;;;;;2.60;99.90;;;;;;4869346;29;19920;-88
2021/12/04 14:57:22;;;;;;;;;;;2.60;99.90;;;;;;4876109;29;19919;-89
2021/12/04 15:00:27;;;;;;;;;;;2.60;99.90;;;;;;4875929;29;19999;-88
2021/12/04 15:03:03;;;;;;;;;;;2.60;99.90;;;;;;4810607;29;19913;-88
2021/12/04 15:05:34;;;;;;;;;;;2.60;99.90;;;;;;4823074;29;20015;-88
2021/12/04 15:08:05;;;;;;;;;;;2.50;99.90;;;;;;4825983;29;19916;-88
2021/12/04 15:10:31;;;;;;;;;;;2.50;99.90;;;;;;4812668;29;19923;-87
2021/12/04 15:12:58;;;;;;;;;;;2.50;99.90;;;;;;4827520;29;19916;-87
2021/12/04 15:15:28;;;;;;;;;;;2.40;99.90;;;;;;4815065;29;19997;-88
2021/12/04 15:18:20;;;;;;;;;;;2.40;99.90;;;;;;4827964;29;19948;-87
2021/12/04 15:21:13;;;;;;;;;;;2.40;99.90;;;;;;4812970;29;20284;-88
2021/12/04 15:23:42;;;;;;;;;;;2.40;99.90;;;;;;4774771;29;20070;-88
2021/12/04 15:26:12;;;;;;;;;;;2.40;99.90;;;;;;4814095;29;20551;-88
2021/12/04 15:28:42;;;;;;;;;;;2.70;99.90;;;;;;4821743;29;19920;-88
2021/12/04 15:31:10;;;;;;;;;;;3.00;99.90;;;;;;4809270;29;19924;-88
2021/12/04 15:33:37;;;;;;;;;;;3.10;99.90;;;;;;4833604;29;19951;-88
2021/12/04 15:36:20;;;;;;;;;;;2.90;99.90;;;;;;4851832;29;20076;-87
2021/12/04 15:38:52;;;;;;;;;;;2.70;99.90;;;;;;4828716;29;20296;-87
2021/12/04 15:46:38;;;;;;;;;;;2.50;99.90;;;;;;4859801;29;20014;-88
2021/12/04 15:54:24;;;;;;;;;;;2.40;99.90;;;;;;4883054;29;20073;-88
2021/12/04 15:56:53;;;;;;;;;;;2.40;99.90;;;;;;4874896;29;19916;-88
2021/12/04 15:59:22;;;;;;;;;;;2.50;99.90;;;;;;4872927;29;20283;-88
2021/12/04 16:02:19;;;;;;;;;;;;;;;;;;;;;
2021/12/04 16:07:54;;;;;;;;;;;;;;;;;;;;;
2021/12/04 16:10:24;;;;;;;;;;;2.50;99.90;;;;;;4845313;29;19920;-88
2021/12/04 16:13:14;;;;;;;;;;;2.50;99.90;;;;;;4841005;29;19966;-87
2021/12/04 16:24:53;;;;;;;;;;;2.40;99.90;;;;;;4877106;29;19927;-83
2021/12/04 16:46:50;;;;;;;;;;;2.40;99.90;;;;;;4796464;29;20323;-90
2021/12/04 16:55:50;;;;;;;;;;;2.50;99.90;;;;;;4786770;29;20440;-91
2021/12/04 16:58:45;;;;;;;;;;;2.50;99.90;;;;;;4783225;29;20688;-90
2021/12/04 17:01:31;;;;;;;;;;;2.50;99.90;;;;;;4815100;29;19966;-90
2021/12/04 17:04:00;;;;;;;;;;;2.40;99.90;;;;;;4854546;29;19926;-90
2021/12/04 17:07:10;;;;;;;;;;;2.50;99.90;;;;;;4831487;29;19920;-92
2021/12/04 17:09:46;;;;;;;;;;;2.40;99.90;;;;;;4801077;29;20012;-91
2021/12/04 17:25:50;;;;;;;;;;;2.40;99.90;;;;;;4714982;30;20600;-88
2021/12/04 17:28:42;;;;;;;;;;;2.40;99.90;;;;;;4727835;30;20281;-89
2021/12/04 17:34:37;;;;;;;;;;;2.40;99.90;;;;;;4706175;30;20410;-90
2021/12/04 17:37:31;;;;;;;;;;;2.40;99.90;;;;;;4656739;30;19930;-90
2021/12/04 17:49:45;;;;;;;;;;;2.40;99.90;;;;;;4579776;31;20045;-88
2021/12/04 17:52:11;;;;;;;;;;;2.40;99.90;;;;;;4596082;30;20416;-88
2021/12/04 17:54:37;;;;;;;;;;;2.30;99.90;;;;;;4683031;30;19919;-88
2021/12/04 17:57:02;;;;;;;;;;;2.40;99.90;;;;;;4692755;30;19919;-88
2021/12/04 17:59:29;;;;;;;;;;;2.40;99.90;;;;;;4680548;30;20020;-88
2021/12/04 18:02:06;;;;;;;;;;;2.30;99.90;;;;;;4672497;30;20576;-88
2021/12/04 18:04:40;;;;;;;;;;;2.40;99.90;;;;;;4693837;30;20436;-87
2021/12/04 18:07:09;;;;;;;;;;;2.40;99.90;;;;;;4685699;30;20324;-87
2021/12/04 18:09:35;;;;;;;;;;;2.40;99.90;;;;;;4696638;30;20138;-88
2021/12/04 18:12:05;;;;;;;;;;;2.40;99.90;;;;;;4693673;30;20002;-88
2021/12/04 18:14:34;;;;;;;;;;;2.40;99.90;;;;;;4687863;30;20403;-88
2021/12/04 18:20:20;;;;;;;;;;;;;;;;;;;;;
2021/12/04 18:22:55;;;;;;;;;;;2.60;99.90;;;;;;4767634;29;19927;-90
2021/12/04 18:25:25;;;;;;;;;;;2.50;99.90;;;;;;4818476;29;19924;-89
2021/12/04 18:27:56;;;;;;;;;;;2.50;99.90;;;;;;4820358;29;20393;-89
2021/12/04 18:30:32;;;;;;;;;;;2.50;99.90;;;;;;4835335;29;19933;-89
2021/12/04 18:33:08;;;;;;;;;;;2.50;99.90;;;;;;4816980;29;19920;-89
2021/12/04 18:35:35;;;;;;;;;;;2.40;99.90;;;;;;4841146;29;19948;-90
2021/12/04 18:38:10;;;;;;;;;;;2.40;99.90;;;;;;4870711;29;20052;-89
2021/12/04 18:40:46;;;;;;;;;;;2.40;99.90;;;;;;4864297;29;19962;-89
2021/12/04 18:43:32;;;;;;;;;;;2.40;99.90;;;;;;4788067;29;20273;-89
2021/12/04 18:46:09;;;;;;;;;;;2.40;99.90;;;;;;4797265;29;20320;-89
2021/12/04 18:48:36;;;;;;;;;;;2.40;99.90;;;;;;4829081;29;19971;-89
2021/12/04 18:51:04;;;;;;;;;;;2.40;99.90;;;;;;4859121;29;20277;-89
2021/12/04 18:53:30;;;;;;;;;;;2.40;99.90;;;;;;4854037;29;20292;-89
2021/12/04 18:55:59;;;;;;;;;;;2.40;99.90;;;;;;4857013;29;19911;-89
2021/12/04 18:59:03;;;;;;;;;;;2.40;99.90;;;;;;4866975;29;19951;-89
2021/12/04 19:01:42;;;;;;;;;;;2.30;99.90;;;;;;4846368;29;19912;-89
2021/12/04 19:04:10;;;;;;;;;;;2.40;99.90;;;;;;4864963;29;19917;-89
2021/12/04 19:06:38;;;;;;;;;;;2.40;99.90;;;;;;4852817;29;20583;-89
2021/12/04 19:13:03;;;;;;;;;;;;;;;;;;;;;
2021/12/04 19:22:20;;;;;;;;;;;2.30;99.90;;;;;;4740676;30;19921;-89
2021/12/04 19:24:48;;;;;;;;;;;2.30;99.90;;;;;;4709899;30;19953;-89
2021/12/04 19:27:25;;;;;;;;;;;2.40;99.90;;;;;;4682286;30;19946;-90
2021/12/04 19:30:28;;;;;;;;;;;2.30;99.90;;;;;;4715815;30;20013;-89
2021/12/04 19:50:52;;;;;;;;;;;2.30;99.90;;;;;;4764548;29;20779;-90
2021/12/04 19:59:24;;;;;;;;;;;2.30;99.90;;;;;;4722723;30;20562;-90
2021/12/04 20:13:43;;;;;;;;;;;2.30;99.90;;;;;;4895736;24;19924;-90
2021/12/04 20:16:21;;;;;;;;;;;2.30;99.90;;;;;;4861263;29;20519;-90
2021/12/04 20:18:48;;;;;;;;;;;2.30;99.90;;;;;;4862578;29;19918;-90
2021/12/04 20:21:18;;;;;;;;;;;2.30;99.90;;;;;;4888705;29;20271;-90
2021/12/04 20:23:48;;;;;;;;;;;2.30;99.90;;;;;;4862164;29;19915;-90
2021/12/04 20:26:22;;;;;;;;;;;2.30;99.90;;;;;;4830922;29;19942;-90
2021/12/04 20:29:11;;;;;;;;;;;2.30;99.90;;;;;;4873910;29;19943;-89
2021/12/04 20:31:50;;;;;;;;;;;2.30;99.90;;;;;;4823960;29;19917;-90
2021/12/04 22:10:50;;;;;;;;;;;2.10;99.90;;;;;;4783743;29;19967;-90
2021/12/04 22:58:46;;;;;;;;;;;1.90;99.90;;;;;;4869995;29;19916;-91
2021/12/04 23:01:20;;;;;;;;;;;1.90;99.90;;;;;;4869469;29;19968;-90
2021/12/04 23:12:10;;;;;;;;;;;1.70;99.90;;;;;;4857130;29;20007;-90
2021/12/04 23:14:39;;;;;;;;;;;1.70;99.90;;;;;;4852273;29;19916;-90
2021/12/04 23:36:33;;;;;;;;;;;1.40;99.90;;;;;;4869174;29;19935;-92
